sensor_id;sensor_type;location;lat;lon;timestamp;temperature;humidity
4922;DHT22;16625;53.624;10.106;2023-04-24T00:02:00;12.40;1.00
4922;DHT22;16625;53.624;10.106;2023-04-24T00:04:29;12.00;1.00
4922;DHT22;16625;53.624;10.106;2023-04-24T00:06:57;12.00;1.00
4922;DHT22;16625;53.624;10.106;2023-04-24T00:09:26;11.90;65.10
4922;DHT22;16625;53.624;10.106;2023-04-24T00:11:54;11.90;99.90
4922;DHT22;16625;53.624;10.106;2023-04-24T00:14:21;11.80;99.90
4922;DHT22;16625;53.624;10.106;2023-04-24T00:16:48;11.70;99.90
4922;DHT22;16625;53.624;10.106;2023-04-24T00:19:15;11.70;99.90
4922;DHT22;16625;53.624;10.106;2023-04-24T00:21:42;11.80;99.90
4922;DHT22;16625;53.624;10.106;2023-04-24T00:24:09;11.60;99.90
4922;DHT22;16625;53.624;10.106;2023-04-24T00:26:38;11.40;99.90
4922;DHT22;16625;53.624;10.106;2023-04-24T00:29:05;11.40;99.90
4922;DHT22;16625;53.624;10.106;2023-04-24T00:31:32;11.40;99.90
4922;DHT22;16625;53.624;10.106;2023-04-24T00:34:00;11.30;99.90
4922;DHT22;16625;53.624;10.106;2023-04-24T00:36:27;11.30;99.90
4922;DHT22;16625;53.624;10.106;2023-04-24T00:38:55;11.30;99.90
4922;DHT22;16625;53.624;10.106;2023-04-24T00:41:21;11.30;99.90
4922;DHT22;16625;53.624;10.106;2023-04-24T00:43:50;11.20;99.90
4922;DHT22;16625;53.624;10.106;2023-04-24T00:46:19;11.30;99.90
4922;DHT22;16625;53.624;10.106;2023-04-24T00:48:47;11.10;99.90
4922;DHT22;16625;53.624;10.106;2023-04-24T00:51:14;11.30;99.90
4922;DHT22;16625;53.624;10.106;2023-04-24T00:53:41;11.10;99.90
4922;DHT22;16625;53.624;10.106;2023-04-24T00:56:08;11.10;99.90
4922;DHT22;16625;53.624;10.106;2023-04-24T00:58:35;11.10;99.90
4922;DHT22;16625;53.624;10.106;2023-04-24T01:01:03;11.10;99.90
4922;DHT22;16625;53.624;10.106;2023-04-24T01:03:33;10.90;99.90
4922;DHT22;16625;53.624;10.106;2023-04-24T01:06:03;10.90;99.90
4922;DHT22;16625;53.624;10.106;2023-04-24T01:08:30;10.90;99.90
4922;DHT22;16625;53.624;10.106;2023-04-24T01:10:58;11.00;99.90
4922;DHT22;16625;53.624;10.106;2023-04-24T01:13:25;11.00;99.90
4922;DHT22;16625;53.624;10.106;2023-04-24T01:15:52;11.00;99.90
4922;DHT22;16625;53.624;10.106;2023-04-24T01:18:21;11.20;99.90
4922;DHT22;16625;53.624;10.106;2023-04-24T01:20:49;11.20;99.90
4922;DHT22;16625;53.624;10.106;2023-04-24T01:23:19;11.20;99.90
4922;DHT22;16625;53.624;10.106;2023-04-24T01:25:46;11.10;99.90
4922;DHT22;16625;53.624;10.106;2023-04-24T01:28:13;11.10;99.90
4922;DHT22;16625;53.624;10.106;2023-04-24T01:30:40;11.20;99.90
4922;DHT22;16625;53.624;10.106;2023-04-24T01:33:08;11.00;99.90
4922;DHT22;16625;53.624;10.106;2023-04-24T01:35:35;10.90;99.90
4922;DHT22;16625;53.624;10.106;2023-04-24T01:38:02;10.80;99.90
4922;DHT22;16625;53.624;10.106;2023-04-24T01:40:31;10.70;99.90
4922;DHT22;16625;53.624;10.106;2023-04-24T01:42:58;10.80;99.90
4922;DHT22;16625;53.624;10.106;2023-04-24T01:45:26;10.90;99.90
4922;DHT22;16625;53.624;10.106;2023-04-24T01:47:53;10.80;99.90
4922;DHT22;16625;53.624;10.106;2023-04-24T01:50:20;10.80;99.90
4922;DHT22;16625;53.624;10.106;2023-04-24T01:52:47;11.00;99.90
4922;DHT22;16625;53.624;10.106;2023-04-24T01:55:14;10.90;99.90
4922;DHT22;16625;53.624;10.106;2023-04-24T01:57:42;11.10;99.90
4922;DHT22;16625;53.624;10.106;2023-04-24T02:00:10;10.90;99.90
4922;DHT22;16625;53.624;10.106;2023-04-24T02:02:39;10.80;99.90
4922;DHT22;16625;53.624;10.106;2023-04-24T02:05:07;10.90;99.90
4922;DHT22;16625;53.624;10.106;2023-04-24T02:07:35;10.60;99.90
4922;DHT22;16625;53.624;10.106;2023-04-24T02:10:02;10.50;99.90
4922;DHT22;16625;53.624;10.106;2023-04-24T02:12:30;10.50;99.90
4922;DHT22;16625;53.624;10.106;2023-04-24T02:14:58;10.40;99.90
4922;DHT22;16625;53.624;10.106;2023-04-24T02:17:25;10.30;99.90
4922;DHT22;16625;53.624;10.106;2023-04-24T02:19:52;10.40;99.90
4922;DHT22;16625;53.624;10.106;2023-04-24T02:22:19;10.40;99.90
4922;DHT22;16625;53.624;10.106;2023-04-24T02:24:46;10.30;99.90
4922;DHT22;16625;53.624;10.106;2023-04-24T02:27:13;10.30;99.90
4922;DHT22;16625;53.624;10.106;2023-04-24T02:29:40;10.20;99.90
4922;DHT22;16625;53.624;10.106;2023-04-24T02:32:08;10.30;99.90
4922;DHT22;16625;53.624;10.106;2023-04-24T02:34:37;10.10;99.90
4922;DHT22;16625;53.624;10.106;2023-04-24T02:37:04;10.10;99.90
4922;DHT22;16625;53.624;10.106;2023-04-24T02:39:31;10.00;99.90
4922;DHT22;16625;53.624;10.106;2023-04-24T02:41:59;10.00;99.90
4922;DHT22;16625;53.624;10.106;2023-04-24T02:44:27;10.00;99.90
4922;DHT22;16625;53.624;10.106;2023-04-24T02:46:54;10.00;99.90
4922;DHT22;16625;53.624;10.106;2023-04-24T02:49:22;9.90;99.90
4922;DHT22;16625;53.624;10.106;2023-04-24T02:51:49;9.70;99.90
4922;DHT22;16625;53.624;10.106;2023-04-24T02:54:16;9.80;99.90
4922;DHT22;16625;53.624;10.106;2023-04-24T02:56:43;9.60;99.90
4922;DHT22;16625;53.624;10.106;2023-04-24T02:59:10;9.50;99.90
4922;DHT22;16625;53.624;10.106;2023-04-24T03:01:37;9.60;99.90
4922;DHT22;16625;53.624;10.106;2023-04-24T03:04:04;9.50;99.90
4922;DHT22;16625;53.624;10.106;2023-04-24T03:06:32;9.60;99.90
4922;DHT22;16625;53.624;10.106;2023-04-24T03:09:03;9.50;99.90
4922;DHT22;16625;53.624;10.106;2023-04-24T03:11:30;9.40;99.90
4922;DHT22;16625;53.624;10.106;2023-04-24T03:13:57;9.40;99.90
4922;DHT22;16625;53.624;10.106;2023-04-24T03:16:24;9.50;99.90
4922;DHT22;16625;53.624;10.106;2023-04-24T03:18:51;9.40;99.90
4922;DHT22;16625;53.624;10.106;2023-04-24T03:21:18;9.60;99.90
4922;DHT22;16625;53.624;10.106;2023-04-24T03:23:46;9.40;99.90
4922;DHT22;16625;53.624;10.106;2023-04-24T03:26:13;9.90;99.90
4922;DHT22;16625;53.624;10.106;2023-04-24T03:28:40;9.30;99.90
4922;DHT22;16625;53.624;10.106;2023-04-24T03:31:07;9.40;99.90
4922;DHT22;16625;53.624;10.106;2023-04-24T03:33:34;9.40;99.90
4922;DHT22;16625;53.624;10.106;2023-04-24T03:36:01;9.30;99.90
4922;DHT22;16625;53.624;10.106;2023-04-24T03:38:28;9.20;99.90
4922;DHT22;16625;53.624;10.106;2023-04-24T03:40:56;9.40;99.90
4922;DHT22;16625;53.624;10.106;2023-04-24T03:43:23;9.20;99.90
4922;DHT22;16625;53.624;10.106;2023-04-24T03:45:52;9.20;99.90
4922;DHT22;16625;53.624;10.106;2023-04-24T03:48:23;9.10;99.90
4922;DHT22;16625;53.624;10.106;2023-04-24T03:50:50;9.30;99.90
4922;DHT22;16625;53.624;10.106;2023-04-24T03:53:18;9.10;99.90
4922;DHT22;16625;53.624;10.106;2023-04-24T03:55:46;9.30;99.90
4922;DHT22;16625;53.624;10.106;2023-04-24T03:58:14;9.20;99.90
4922;DHT22;16625;53.624;10.106;2023-04-24T04:00:41;9.10;99.90
4922;DHT22;16625;53.624;10.106;2023-04-24T04:03:10;9.10;99.90
4922;DHT22;16625;53.624;10.106;2023-04-24T04:05:38;9.20;99.90
4922;DHT22;16625;53.624;10.106;2023-04-24T04:08:05;9.10;99.90
4922;DHT22;16625;53.624;10.106;2023-04-24T04:10:32;9.10;99.90
4922;DHT22;16625;53.624;10.106;2023-04-24T04:12:59;9.00;99.90
4922;DHT22;16625;53.624;10.106;2023-04-24T04:15:28;9.10;99.90
4922;DHT22;16625;53.624;10.106;2023-04-24T04:17:55;9.30;99.90
4922;DHT22;16625;53.624;10.106;2023-04-24T04:20:22;9.20;99.90
4922;DHT22;16625;53.624;10.106;2023-04-24T04:22:49;9.10;99.90
4922;DHT22;16625;53.624;10.106;2023-04-24T04:25:16;9.00;99.90
4922;DHT22;16625;53.624;10.106;2023-04-24T04:27:45;9.10;99.90
4922;DHT22;16625;53.624;10.106;2023-04-24T04:30:13;9.00;99.90
4922;DHT22;16625;53.624;10.106;2023-04-24T04:32:42;9.00;99.90
4922;DHT22;16625;53.624;10.106;2023-04-24T04:35:09;9.10;99.90
4922;DHT22;16625;53.624;10.106;2023-04-24T04:37:36;9.10;99.90
4922;DHT22;16625;53.624;10.106;2023-04-24T04:40:04;9.00;99.90
4922;DHT22;16625;53.624;10.106;2023-04-24T04:42:35;9.00;99.90
4922;DHT22;16625;53.624;10.106;2023-04-24T04:45:06;9.00;97.00
4922;DHT22;16625;53.624;10.106;2023-04-24T04:47:35;9.10;9.20
4922;DHT22;16625;53.624;10.106;2023-04-24T04:50:04;9.10;1.00
4922;DHT22;16625;53.624;10.106;2023-04-24T04:52:31;9.20;1.00
4922;DHT22;16625;53.624;10.106;2023-04-24T04:54:58;9.50;99.90
4922;DHT22;16625;53.624;10.106;2023-04-24T04:57:26;9.40;1.00
4922;DHT22;16625;53.624;10.106;2023-04-24T04:59:53;9.60;99.90
4922;DHT22;16625;53.624;10.106;2023-04-24T05:02:20;9.70;99.90
4922;DHT22;16625;53.624;10.106;2023-04-24T05:04:47;9.90;76.60
4922;DHT22;16625;53.624;10.106;2023-04-24T05:07:17;10.10;99.90
4922;DHT22;16625;53.624;10.106;2023-04-24T05:09:45;10.40;1.00
4922;DHT22;16625;53.624;10.106;2023-04-24T05:12:12;10.50;99.90
4922;DHT22;16625;53.624;10.106;2023-04-24T05:14:39;10.50;4.10
4922;DHT22;16625;53.624;10.106;2023-04-24T05:17:07;10.60;1.00
4922;DHT22;16625;53.624;10.106;2023-04-24T05:19:35;10.50;99.90
4922;DHT22;16625;53.624;10.106;2023-04-24T05:22:05;10.50;1.00
4922;DHT22;16625;53.624;10.106;2023-04-24T05:24:34;10.60;1.00
4922;DHT22;16625;53.624;10.106;2023-04-24T05:27:01;10.50;99.90
4922;DHT22;16625;53.624;10.106;2023-04-24T05:29:30;10.80;99.90
4922;DHT22;16625;53.624;10.106;2023-04-24T05:32:00;10.70;99.90
4922;DHT22;16625;53.624;10.106;2023-04-24T05:34:27;10.70;99.90
4922;DHT22;16625;53.624;10.106;2023-04-24T05:36:54;10.70;99.90
4922;DHT22;16625;53.624;10.106;2023-04-24T05:39:21;11.30;99.90
4922;DHT22;16625;53.624;10.106;2023-04-24T05:41:51;10.70;77.10
4922;DHT22;16625;53.624;10.106;2023-04-24T05:44:18;10.90;73.90
4922;DHT22;16625;53.624;10.106;2023-04-24T05:46:45;10.80;11.20
4922;DHT22;16625;53.624;10.106;2023-04-24T05:49:12;10.80;1.00
4922;DHT22;16625;53.624;10.106;2023-04-24T05:51:39;10.60;1.00
4922;DHT22;16625;53.624;10.106;2023-04-24T05:54:06;11.00;1.00
4922;DHT22;16625;53.624;10.106;2023-04-24T05:56:33;10.80;99.90
4922;DHT22;16625;53.624;10.106;2023-04-24T05:59:02;11.00;99.90
4922;DHT22;16625;53.624;10.106;2023-04-24T06:01:29;10.80;99.90
4922;DHT22;16625;53.624;10.106;2023-04-24T06:03:56;11.10;99.90
4922;DHT22;16625;53.624;10.106;2023-04-24T06:06:26;11.10;99.90
4922;DHT22;16625;53.624;10.106;2023-04-24T06:08:53;11.20;99.90
4922;DHT22;16625;53.624;10.106;2023-04-24T06:11:20;11.20;99.90
4922;DHT22;16625;53.624;10.106;2023-04-24T06:13:53;11.30;18.60
4922;DHT22;16625;53.624;10.106;2023-04-24T06:16:22;11.50;1.00
4922;DHT22;16625;53.624;10.106;2023-04-24T06:18:49;11.60;1.00
4922;DHT22;16625;53.624;10.106;2023-04-24T06:21:16;11.50;1.00
4922;DHT22;16625;53.624;10.106;2023-04-24T06:23:45;11.60;99.90
4922;DHT22;16625;53.624;10.106;2023-04-24T06:26:13;11.70;99.90
4922;DHT22;16625;53.624;10.106;2023-04-24T06:28:40;11.80;99.90
4922;DHT22;16625;53.624;10.106;2023-04-24T06:31:07;12.00;1.00
4922;DHT22;16625;53.624;10.106;2023-04-24T06:33:35;11.90;1.00
4922;DHT22;16625;53.624;10.106;2023-04-24T06:36:02;12.00;1.00
4922;DHT22;16625;53.624;10.106;2023-04-24T06:38:31;12.10;99.90
4922;DHT22;16625;53.624;10.106;2023-04-24T06:40:58;12.30;99.90
4922;DHT22;16625;53.624;10.106;2023-04-24T06:43:25;12.30;99.90
4922;DHT22;16625;53.624;10.106;2023-04-24T06:45:52;12.30;99.80
4922;DHT22;16625;53.624;10.106;2023-04-24T06:48:19;12.50;1.00
4922;DHT22;16625;53.624;10.106;2023-04-24T06:50:48;12.50;1.00
4922;DHT22;16625;53.624;10.106;2023-04-24T06:53:15;12.60;1.00
4922;DHT22;16625;53.624;10.106;2023-04-24T06:55:42;12.80;1.00
4922;DHT22;16625;53.624;10.106;2023-04-24T06:58:10;12.90;1.00
4922;DHT22;16625;53.624;10.106;2023-04-24T07:00:38;13.30;99.90
4922;DHT22;16625;53.624;10.106;2023-04-24T07:03:06;13.30;1.00
4922;DHT22;16625;53.624;10.106;2023-04-24T07:05:36;13.40;1.00
4922;DHT22;16625;53.624;10.106;2023-04-24T07:08:05;13.90;96.60
4922;DHT22;16625;53.624;10.106;2023-04-24T07:10:32;13.60;99.90
4922;DHT22;16625;53.624;10.106;2023-04-24T07:13:01;13.60;1.00
4922;DHT22;16625;53.624;10.106;2023-04-24T07:15:29;13.60;1.00
4922;DHT22;16625;53.624;10.106;2023-04-24T07:17:57;13.10;1.00
4922;DHT22;16625;53.624;10.106;2023-04-24T07:20:24;13.20;1.00
4922;DHT22;16625;53.624;10.106;2023-04-24T07:22:52;13.50;1.00
4922;DHT22;16625;53.624;10.106;2023-04-24T07:25:23;13.40;1.00
4922;DHT22;16625;53.624;10.106;2023-04-24T07:27:51;13.40;1.00
4922;DHT22;16625;53.624;10.106;2023-04-24T07:30:18;13.80;1.00
4922;DHT22;16625;53.624;10.106;2023-04-24T07:32:46;13.80;1.00
4922;DHT22;16625;53.624;10.106;2023-04-24T07:35:13;13.80;1.00
4922;DHT22;16625;53.624;10.106;2023-04-24T07:37:40;13.90;1.00
4922;DHT22;16625;53.624;10.106;2023-04-24T07:40:12;13.70;1.00
4922;DHT22;16625;53.624;10.106;2023-04-24T07:42:40;13.90;1.00
4922;DHT22;16625;53.624;10.106;2023-04-24T07:45:10;13.80;1.00
4922;DHT22;16625;53.624;10.106;2023-04-24T07:47:37;13.90;1.00
4922;DHT22;16625;53.624;10.106;2023-04-24T07:50:06;13.90;1.00
4922;DHT22;16625;53.624;10.106;2023-04-24T07:52:33;14.00;1.00
4922;DHT22;16625;53.624;10.106;2023-04-24T07:55:00;14.10;1.00
4922;DHT22;16625;53.624;10.106;2023-04-24T07:57:28;13.80;1.00
4922;DHT22;16625;53.624;10.106;2023-04-24T07:59:56;13.70;1.00
4922;DHT22;16625;53.624;10.106;2023-04-24T08:02:25;13.90;1.00
4922;DHT22;16625;53.624;10.106;2023-04-24T08:04:53;14.00;1.00
4922;DHT22;16625;53.624;10.106;2023-04-24T08:07:22;14.10;1.00
4922;DHT22;16625;53.624;10.106;2023-04-24T08:09:50;14.50;1.00
4922;DHT22;16625;53.624;10.106;2023-04-24T08:12:18;15.00;1.00
4922;DHT22;16625;53.624;10.106;2023-04-24T08:14:45;14.60;1.00
4922;DHT22;16625;53.624;10.106;2023-04-24T08:17:14;14.80;1.00
4922;DHT22;16625;53.624;10.106;2023-04-24T08:19:43;14.70;1.00
4922;DHT22;16625;53.624;10.106;2023-04-24T08:22:13;14.10;99.90
4922;DHT22;16625;53.624;10.106;2023-04-24T08:24:40;14.00;99.90
4922;DHT22;16625;53.624;10.106;2023-04-24T08:27:08;14.20;99.90
4922;DHT22;16625;53.624;10.106;2023-04-24T08:29:36;14.20;1.00
4922;DHT22;16625;53.624;10.106;2023-04-24T08:32:03;14.10;99.90
4922;DHT22;16625;53.624;10.106;2023-04-24T08:34:32;14.10;99.90
4922;DHT22;16625;53.624;10.106;2023-04-24T08:36:59;14.00;99.90
4922;DHT22;16625;53.624;10.106;2023-04-24T08:39:26;14.20;99.90
4922;DHT22;16625;53.624;10.106;2023-04-24T08:41:53;14.20;99.90
4922;DHT22;16625;53.624;10.106;2023-04-24T08:44:20;14.40;99.90
4922;DHT22;16625;53.624;10.106;2023-04-24T08:46:48;14.10;99.90
4922;DHT22;16625;53.624;10.106;2023-04-24T08:49:16;14.10;99.90
4922;DHT22;16625;53.624;10.106;2023-04-24T08:51:44;14.20;99.90
4922;DHT22;16625;53.624;10.106;2023-04-24T08:54:12;14.30;99.90
4922;DHT22;16625;53.624;10.106;2023-04-24T08:56:43;14.30;99.90
4922;DHT22;16625;53.624;10.106;2023-04-24T08:59:11;14.40;99.90
4922;DHT22;16625;53.624;10.106;2023-04-24T09:01:38;14.50;99.90
4922;DHT22;16625;53.624;10.106;2023-04-24T09:04:08;14.50;99.90
4922;DHT22;16625;53.624;10.106;2023-04-24T09:06:36;14.60;99.90
4922;DHT22;16625;53.624;10.106;2023-04-24T09:09:05;14.50;99.90
4922;DHT22;16625;53.624;10.106;2023-04-24T09:11:32;14.50;99.90
4922;DHT22;16625;53.624;10.106;2023-04-24T09:13:59;14.40;99.90
4922;DHT22;16625;53.624;10.106;2023-04-24T09:16:27;14.30;99.90
4922;DHT22;16625;53.624;10.106;2023-04-24T09:18:55;14.70;99.90
4922;DHT22;16625;53.624;10.106;2023-04-24T09:21:22;15.10;99.90
4922;DHT22;16625;53.624;10.106;2023-04-24T09:23:59;15.50;99.90
4922;DHT22;16625;53.624;10.106;2023-04-24T09:26:29;15.60;99.90
4922;DHT22;16625;53.624;10.106;2023-04-24T09:28:57;15.60;99.90
4922;DHT22;16625;53.624;10.106;2023-04-24T09:31:27;15.40;99.90
4922;DHT22;16625;53.624;10.106;2023-04-24T09:33:56;15.40;99.90
4922;DHT22;16625;53.624;10.106;2023-04-24T09:36:31;15.30;99.90
4922;DHT22;16625;53.624;10.106;2023-04-24T09:39:02;15.10;99.90
4922;DHT22;16625;53.624;10.106;2023-04-24T09:41:32;14.90;99.90
4922;DHT22;16625;53.624;10.106;2023-04-24T09:44:11;14.50;99.90
4922;DHT22;16625;53.624;10.106;2023-04-24T09:46:38;14.70;99.90
4922;DHT22;16625;53.624;10.106;2023-04-24T09:49:09;14.80;99.90
4922;DHT22;16625;53.624;10.106;2023-04-24T09:51:37;15.00;99.90
4922;DHT22;16625;53.624;10.106;2023-04-24T09:54:11;15.40;99.90
4922;DHT22;16625;53.624;10.106;2023-04-24T09:56:42;15.10;99.90
4922;DHT22;16625;53.624;10.106;2023-04-24T09:59:10;14.80;99.90
4922;DHT22;16625;53.624;10.106;2023-04-24T10:01:38;14.70;99.90
4922;DHT22;16625;53.624;10.106;2023-04-24T10:04:15;14.40;99.90
4922;DHT22;16625;53.624;10.106;2023-04-24T10:06:42;14.40;99.90
4922;DHT22;16625;53.624;10.106;2023-04-24T10:09:10;14.20;99.90
4922;DHT22;16625;53.624;10.106;2023-04-24T10:11:42;14.30;99.90
4922;DHT22;16625;53.624;10.106;2023-04-24T10:14:11;14.20;99.90
4922;DHT22;16625;53.624;10.106;2023-04-24T10:16:39;14.10;99.90
4922;DHT22;16625;53.624;10.106;2023-04-24T10:19:09;14.00;99.90
4922;DHT22;16625;53.624;10.106;2023-04-24T10:21:36;14.10;99.90
4922;DHT22;16625;53.624;10.106;2023-04-24T10:24:08;14.40;99.90
4922;DHT22;16625;53.624;10.106;2023-04-24T10:26:38;14.50;99.90
4922;DHT22;16625;53.624;10.106;2023-04-24T10:29:08;14.30;99.90
4922;DHT22;16625;53.624;10.106;2023-04-24T10:31:38;14.30;99.90
4922;DHT22;16625;53.624;10.106;2023-04-24T10:34:06;14.30;99.90
4922;DHT22;16625;53.624;10.106;2023-04-24T10:36:34;14.30;99.90
4922;DHT22;16625;53.624;10.106;2023-04-24T10:39:06;14.50;99.90
4922;DHT22;16625;53.624;10.106;2023-04-24T10:41:37;14.40;99.90
4922;DHT22;16625;53.624;10.106;2023-04-24T10:44:05;14.60;99.90
4922;DHT22;16625;53.624;10.106;2023-04-24T10:46:34;14.80;99.90
4922;DHT22;16625;53.624;10.106;2023-04-24T10:49:07;14.70;99.90
4922;DHT22;16625;53.624;10.106;2023-04-24T10:51:46;14.30;99.90
4922;DHT22;16625;53.624;10.106;2023-04-24T10:54:26;14.40;99.90
4922;DHT22;16625;53.624;10.106;2023-04-24T10:57:25;14.20;99.90
4922;DHT22;16625;53.624;10.106;2023-04-24T10:59:49;14.30;99.90
4922;DHT22;16625;53.624;10.106;2023-04-24T11:02:18;13.80;99.90
4922;DHT22;16625;53.624;10.106;2023-04-24T11:04:45;13.70;99.90
4922;DHT22;16625;53.624;10.106;2023-04-24T11:07:12;13.50;99.90
4922;DHT22;16625;53.624;10.106;2023-04-24T11:09:42;13.40;99.90
4922;DHT22;16625;53.624;10.106;2023-04-24T11:12:11;13.50;99.90
4922;DHT22;16625;53.624;10.106;2023-04-24T11:15:01;13.70;99.90
4922;DHT22;16625;53.624;10.106;2023-04-24T11:17:33;13.80;99.90
4922;DHT22;16625;53.624;10.106;2023-04-24T11:20:03;14.50;99.90
4922;DHT22;16625;53.624;10.106;2023-04-24T11:22:36;14.90;99.90
4922;DHT22;16625;53.624;10.106;2023-04-24T11:25:06;15.30;99.90
4922;DHT22;16625;53.624;10.106;2023-04-24T11:27:39;15.50;99.90
4922;DHT22;16625;53.624;10.106;2023-04-24T11:30:07;15.40;99.90
4922;DHT22;16625;53.624;10.106;2023-04-24T11:32:41;15.40;99.90
4922;DHT22;16625;53.624;10.106;2023-04-24T11:35:14;15.60;99.90
4922;DHT22;16625;53.624;10.106;2023-04-24T11:37:42;15.60;99.90
4922;DHT22;16625;53.624;10.106;2023-04-24T11:40:12;15.80;99.90
4922;DHT22;16625;53.624;10.106;2023-04-24T11:42:42;15.80;99.90
4922;DHT22;16625;53.624;10.106;2023-04-24T11:45:11;15.80;99.90
4922;DHT22;16625;53.624;10.106;2023-04-24T11:47:40;15.20;99.90
4922;DHT22;16625;53.624;10.106;2023-04-24T11:50:12;15.20;99.90
4922;DHT22;16625;53.624;10.106;2023-04-24T11:52:40;14.80;99.90
4922;DHT22;16625;53.624;10.106;2023-04-24T11:55:09;14.70;99.90
4922;DHT22;16625;53.624;10.106;2023-04-24T11:57:51;15.10;99.90
4922;DHT22;16625;53.624;10.106;2023-04-24T12:00:20;15.40;99.90
4922;DHT22;16625;53.624;10.106;2023-04-24T12:02:49;15.70;99.90
4922;DHT22;16625;53.624;10.106;2023-04-24T12:05:19;15.60;99.90
4922;DHT22;16625;53.624;10.106;2023-04-24T12:07:46;15.40;99.90
4922;DHT22;16625;53.624;10.106;2023-04-24T12:10:13;15.10;99.90
4922;DHT22;16625;53.624;10.106;2023-04-24T12:12:41;14.90;99.90
4922;DHT22;16625;53.624;10.106;2023-04-24T12:15:09;14.80;99.90
4922;DHT22;16625;53.624;10.106;2023-04-24T12:17:41;14.70;99.90
4922;DHT22;16625;53.624;10.106;2023-04-24T12:20:12;14.70;99.90
4922;DHT22;16625;53.624;10.106;2023-04-24T12:22:46;14.50;99.90
4922;DHT22;16625;53.624;10.106;2023-04-24T12:25:15;14.60;99.90
4922;DHT22;16625;53.624;10.106;2023-04-24T12:27:42;15.10;99.90
4922;DHT22;16625;53.624;10.106;2023-04-24T12:30:12;15.20;99.90
4922;DHT22;16625;53.624;10.106;2023-04-24T12:32:43;15.40;99.90
4922;DHT22;16625;53.624;10.106;2023-04-24T12:35:11;15.60;99.90
4922;DHT22;16625;53.624;10.106;2023-04-24T12:37:52;15.20;99.90
4922;DHT22;16625;53.624;10.106;2023-04-24T12:40:21;15.10;99.90
4922;DHT22;16625;53.624;10.106;2023-04-24T12:42:49;15.10;99.90
4922;DHT22;16625;53.624;10.106;2023-04-24T12:45:17;15.10;99.90
4922;DHT22;16625;53.624;10.106;2023-04-24T12:47:46;15.10;99.90
4922;DHT22;16625;53.624;10.106;2023-04-24T12:50:15;15.20;99.90
4922;DHT22;16625;53.624;10.106;2023-04-24T12:52:42;15.00;99.90
4922;DHT22;16625;53.624;10.106;2023-04-24T12:55:09;14.70;99.90
4922;DHT22;16625;53.624;10.106;2023-04-24T12:57:39;14.80;99.90
4922;DHT22;16625;53.624;10.106;2023-04-24T13:00:07;14.70;99.90
4922;DHT22;16625;53.624;10.106;2023-04-24T13:02:35;14.50;99.90
4922;DHT22;16625;53.624;10.106;2023-04-24T13:05:02;14.40;99.90
4922;DHT22;16625;53.624;10.106;2023-04-24T13:07:30;14.40;99.90
4922;DHT22;16625;53.624;10.106;2023-04-24T13:09:57;14.40;99.90
4922;DHT22;16625;53.624;10.106;2023-04-24T13:12:24;14.20;99.90
4922;DHT22;16625;53.624;10.106;2023-04-24T13:14:52;14.00;99.90
4922;DHT22;16625;53.624;10.106;2023-04-24T13:17:19;13.60;99.90
4922;DHT22;16625;53.624;10.106;2023-04-24T13:19:49;13.30;99.90
4922;DHT22;16625;53.624;10.106;2023-04-24T13:22:16;13.20;99.90
4922;DHT22;16625;53.624;10.106;2023-04-24T13:24:45;13.20;99.90
4922;DHT22;16625;53.624;10.106;2023-04-24T13:27:14;13.00;1.00
4922;DHT22;16625;53.624;10.106;2023-04-24T13:29:41;12.80;1.00
4922;DHT22;16625;53.624;10.106;2023-04-24T13:32:08;12.90;1.00
4922;DHT22;16625;53.624;10.106;2023-04-24T13:34:35;12.80;1.00
4922;DHT22;16625;53.624;10.106;2023-04-24T13:37:03;12.80;1.00
4922;DHT22;16625;53.624;10.106;2023-04-24T13:39:31;12.80;6.40
4922;DHT22;16625;53.624;10.106;2023-04-24T13:41:59;12.80;15.00
4922;DHT22;16625;53.624;10.106;2023-04-24T13:44:26;12.50;1.00
4922;DHT22;16625;53.624;10.106;2023-04-24T13:46:54;12.60;1.00
4922;DHT22;16625;53.624;10.106;2023-04-24T13:49:22;12.70;8.80
4922;DHT22;16625;53.624;10.106;2023-04-24T13:51:52;12.50;1.00
4922;DHT22;16625;53.624;10.106;2023-04-24T13:54:19;12.50;22.80
4922;DHT22;16625;53.624;10.106;2023-04-24T13:56:47;12.50;91.00
4922;DHT22;16625;53.624;10.106;2023-04-24T13:59:17;12.40;97.10
4922;DHT22;16625;53.624;10.106;2023-04-24T14:01:45;12.60;99.90
4922;DHT22;16625;53.624;10.106;2023-04-24T14:48:45;12.80;1.00
4922;DHT22;16625;53.624;10.106;2023-04-24T14:51:35;12.80;1.00
4922;DHT22;16625;53.624;10.106;2023-04-24T14:54:48;12.60;1.00
4922;DHT22;16625;53.624;10.106;2023-04-24T14:57:27;12.50;1.00
4922;DHT22;16625;53.624;10.106;2023-04-24T15:00:07;12.10;99.90
4922;DHT22;16625;53.624;10.106;2023-04-24T15:02:37;11.80;76.90
4922;DHT22;16625;53.624;10.106;2023-04-24T15:05:09;11.40;99.90
4922;DHT22;16625;53.624;10.106;2023-04-24T15:07:38;11.30;99.90
4922;DHT22;16625;53.624;10.106;2023-04-24T15:10:07;11.30;1.00
4922;DHT22;16625;53.624;10.106;2023-04-24T15:12:35;11.10;99.90
4922;DHT22;16625;53.624;10.106;2023-04-24T15:15:02;11.20;1.00
4922;DHT22;16625;53.624;10.106;2023-04-24T15:17:40;11.10;99.90
4922;DHT22;16625;53.624;10.106;2023-04-24T15:20:08;11.00;1.00
4922;DHT22;16625;53.624;10.106;2023-04-24T15:22:36;10.80;99.90
4922;DHT22;16625;53.624;10.106;2023-04-24T15:25:07;10.70;99.90
4922;DHT22;16625;53.624;10.106;2023-04-24T15:27:40;10.60;99.90
4922;DHT22;16625;53.624;10.106;2023-04-24T15:30:11;10.70;99.90
4922;DHT22;16625;53.624;10.106;2023-04-24T15:32:49;10.70;99.90
4922;DHT22;16625;53.624;10.106;2023-04-24T15:36:18;10.80;99.90
4922;DHT22;16625;53.624;10.106;2023-04-24T15:41:41;10.30;99.90
4922;DHT22;16625;53.624;10.106;2023-04-24T15:44:16;10.10;1.00
4922;DHT22;16625;53.624;10.106;2023-04-24T15:46:46;9.80;99.90
4922;DHT22;16625;53.624;10.106;2023-04-24T15:52:32;9.50;1.00
4922;DHT22;16625;53.624;10.106;2023-04-24T15:54:59;9.80;1.00
4922;DHT22;16625;53.624;10.106;2023-04-24T15:57:26;9.40;99.90
4922;DHT22;16625;53.624;10.106;2023-04-24T16:00:04;9.20;99.90
4922;DHT22;16625;53.624;10.106;2023-04-24T16:02:34;9.10;99.90
4922;DHT22;16625;53.624;10.106;2023-04-24T16:05:01;9.00;99.90
4922;DHT22;16625;53.624;10.106;2023-04-24T16:07:29;9.00;99.90
4922;DHT22;16625;53.624;10.106;2023-04-24T16:09:58;9.00;1.00
4922;DHT22;16625;53.624;10.106;2023-04-24T16:12:26;9.10;1.00
4922;DHT22;16625;53.624;10.106;2023-04-24T16:15:05;9.20;1.00
4922;DHT22;16625;53.624;10.106;2023-04-24T16:17:34;9.00;99.90
4922;DHT22;16625;53.624;10.106;2023-04-24T16:20:20;8.90;1.00
4922;DHT22;16625;53.624;10.106;2023-04-24T16:23:23;9.20;99.90
4922;DHT22;16625;53.624;10.106;2023-04-24T16:26:08;8.80;1.00
4922;DHT22;16625;53.624;10.106;2023-04-24T16:29:20;8.70;99.90
4922;DHT22;16625;53.624;10.106;2023-04-24T16:32:08;8.70;1.00
4922;DHT22;16625;53.624;10.106;2023-04-24T16:34:59;8.70;99.90
4922;DHT22;16625;53.624;10.106;2023-04-24T16:37:32;8.60;1.00
4922;DHT22;16625;53.624;10.106;2023-04-24T16:40:05;9.10;1.00
4922;DHT22;16625;53.624;10.106;2023-04-24T16:42:38;8.50;1.00